createdAt,value
2022-08-23T00:02:23.705Z,99324.81
2022-08-23T00:05:07.701Z,99323.88
2022-08-23T00:07:44.002Z,99324.75
2022-08-23T00:10:16.753Z,99319.38
2022-08-23T00:12:46.416Z,99323.81
2022-08-23T00:15:19.045Z,99326.53
2022-08-23T00:17:47.835Z,99324.84
2022-08-23T00:20:20.288Z,99322.19
2022-08-23T00:22:48.069Z,99325.78
2022-08-23T00:25:16.000Z,99323.09
2022-08-23T00:27:44.525Z,99333.75
2022-08-23T00:30:14.825Z,99327.59
2022-08-23T00:32:43.788Z,99332.00
2022-08-23T00:35:26.628Z,99330.28
2022-08-23T00:38:31.616Z,99330.34
2022-08-23T00:40:53.186Z,99334.81
2022-08-23T00:43:49.321Z,99332.09
2022-08-23T00:47:05.625Z,99331.25
2022-08-23T00:49:36.119Z,99331.22
2022-08-23T00:52:35.218Z,99330.38
2022-08-23T00:55:02.856Z,99331.22
2022-08-23T00:57:32.805Z,99325.94
2022-08-23T01:00:00.557Z,99317.13
2022-08-23T01:02:27.885Z,99325.16
2022-08-23T01:04:59.474Z,99328.72
2022-08-23T01:07:59.965Z,99323.44
2022-08-23T01:10:31.304Z,99328.75
2022-08-23T01:13:13.463Z,99327.03
2022-08-23T01:15:57.944Z,99325.28
2022-08-23T01:18:31.032Z,99330.63
2022-08-23T01:21:38.476Z,99333.28
2022-08-23T01:24:10.475Z,99343.97
2022-08-23T01:26:52.130Z,99339.53
2022-08-23T01:29:19.512Z,99347.53
2022-08-23T01:31:46.835Z,99344.91
2022-08-23T01:34:16.245Z,99344.91
2022-08-23T01:36:45.648Z,99354.72
2022-08-23T01:39:13.026Z,99350.31
2022-08-23T01:41:40.763Z,99356.53
2022-08-23T01:44:09.419Z,99354.75
2022-08-23T01:46:37.920Z,99348.56
2022-08-23T01:49:08.442Z,99351.28
2022-08-23T01:51:37.451Z,99357.53
2022-08-23T01:54:05.541Z,99358.41
2022-08-23T01:56:38.231Z,99369.97
2022-08-23T01:59:12.378Z,99364.69
2022-08-23T02:01:59.009Z,99366.50
2022-08-23T02:04:27.643Z,99368.28
2022-08-23T02:06:55.311Z,99370.06
2022-08-23T02:09:25.747Z,99365.66
2022-08-23T02:11:56.154Z,99367.41
2022-08-23T02:14:24.293Z,99363.88
2022-08-23T02:17:03.202Z,99368.31
2022-08-23T02:19:35.450Z,99375.38
2022-08-23T02:22:06.112Z,99378.03
2022-08-23T02:24:34.428Z,99378.94
2022-08-23T02:27:05.574Z,99387.84
2022-08-23T02:29:39.419Z,99384.28
2022-08-23T02:32:10.556Z,99386.06
2022-08-23T02:34:40.536Z,99387.88
2022-08-23T02:37:11.893Z,99383.41
2022-08-23T02:39:41.016Z,99379.91
2022-08-23T02:42:11.729Z,99378.13
2022-08-23T02:44:42.112Z,99386.13
2022-08-23T02:47:11.889Z,99388.78
2022-08-23T02:49:42.512Z,99388.81
2022-08-23T02:52:09.914Z,99383.50
2022-08-23T02:54:37.805Z,99385.31
2022-08-23T02:57:06.604Z,99380.88
2022-08-23T02:59:35.282Z,99381.78
2022-08-23T03:02:03.232Z,99380.88
2022-08-23T03:04:38.936Z,99380.03
2022-08-23T03:07:06.430Z,99378.22
2022-08-23T03:09:34.902Z,99383.56
2022-08-23T03:12:02.338Z,99384.44
2022-08-23T03:14:32.658Z,99383.56
2022-08-23T03:17:01.462Z,99397.75
2022-08-23T03:19:28.865Z,99403.06
2022-08-23T03:21:56.201Z,99393.31
2022-08-23T03:24:23.621Z,99395.09
2022-08-23T03:26:51.355Z,99397.75
2022-08-23T03:29:19.649Z,99404.78
2022-08-23T03:32:01.696Z,99401.25
2022-08-23T03:34:32.355Z,99403.91
2022-08-23T03:36:59.698Z,99413.63
2022-08-23T03:39:27.464Z,99405.66
2022-08-23T03:41:56.044Z,99401.25
2022-08-23T03:44:23.506Z,99406.56
2022-08-23T03:46:51.553Z,99405.66
2022-08-23T03:49:19.357Z,99403.91
2022-08-23T03:51:54.832Z,99418.03
2022-08-23T03:54:22.953Z,99412.75
2022-08-23T03:57:00.386Z,99417.19
2022-08-23T03:59:33.719Z,99423.34
2022-08-23T04:02:01.694Z,99420.69
2022-08-23T04:04:30.725Z,99418.94
2022-08-23T04:07:22.926Z,99423.34
2022-08-23T04:09:55.284Z,99426.88
2022-08-23T04:12:24.171Z,99433.94
2022-08-23T04:14:52.377Z,99433.94
2022-08-23T04:17:21.043Z,99432.19
2022-08-23T04:19:49.428Z,99434.84
2022-08-23T04:22:19.424Z,99436.59
2022-08-23T04:24:48.410Z,99441.06
2022-08-23T04:27:17.012Z,99453.44
2022-08-23T04:29:45.537Z,99451.69
2022-08-23T04:32:14.572Z,99456.97
2022-08-23T04:34:54.444Z,99454.31
2022-08-23T04:37:22.009Z,99465.78
2022-08-23T04:40:08.101Z,99456.94
2022-08-23T04:42:41.888Z,99460.47
2022-08-23T04:45:10.429Z,99462.25
2022-08-23T04:47:41.359Z,99463.09
2022-08-23T04:50:10.117Z,99457.81
2022-08-23T04:52:50.211Z,99464.91
2022-08-23T04:55:17.856Z,99462.25
2022-08-23T04:57:49.717Z,99460.44
2022-08-23T05:00:27.954Z,99462.25
2022-08-23T05:02:57.530Z,99468.44
2022-08-23T05:05:27.561Z,99467.59
2022-08-23T05:07:55.598Z,99466.72
2022-08-23T05:10:23.435Z,99464.06
2022-08-23T05:12:53.366Z,99465.84
2022-08-23T05:15:22.535Z,99470.28
2022-08-23T05:17:57.651Z,99478.28
2022-08-23T05:20:25.558Z,99477.38
2022-08-23T05:22:52.893Z,99480.91
2022-08-23T05:25:48.787Z,99488.00
2022-08-23T05:28:34.570Z,99488.00
2022-08-23T05:31:17.746Z,99499.53
2022-08-23T05:33:52.801Z,99496.94
2022-08-23T05:36:48.335Z,99495.16
2022-08-23T05:39:32.822Z,99494.28
2022-08-23T05:42:09.842Z,99495.16
2022-08-23T05:44:37.904Z,99496.97
2022-08-23T05:47:11.546Z,99500.47
2022-08-23T05:49:53.236Z,99509.34
2022-08-23T05:52:21.390Z,99508.44
2022-08-23T05:54:48.609Z,99501.38
2022-08-23T05:57:47.649Z,99503.09
2022-08-23T06:00:15.624Z,99498.59
2022-08-23T06:02:55.120Z,99498.56
2022-08-23T06:05:22.578Z,99508.25
2022-08-23T06:07:51.818Z,99508.22
2022-08-23T06:10:21.962Z,99517.94
2022-08-23T06:12:56.948Z,99518.81
2022-08-23T06:15:24.366Z,99521.41
2022-08-23T06:17:52.474Z,99524.97
2022-08-23T06:20:19.868Z,99527.63
2022-08-23T06:23:07.911Z,99526.69
2022-08-23T06:25:39.753Z,99530.22
2022-08-23T06:28:11.173Z,99528.38
2022-08-23T06:30:40.180Z,99528.38
2022-08-23T06:33:27.227Z,99531.03
2022-08-23T06:36:15.094Z,99546.97
2022-08-23T06:39:18.801Z,99546.81
2022-08-23T06:42:36.442Z,99545.06
2022-08-23T06:45:04.016Z,99544.97
2022-08-23T06:47:40.256Z,99546.69
2022-08-23T06:50:09.311Z,99551.94
2022-08-23T06:52:55.314Z,99552.78
2022-08-23T06:55:49.428Z,99549.16
2022-08-23T06:58:22.314Z,99548.28
2022-08-23T07:01:44.813Z,99546.38
2022-08-23T07:04:38.124Z,99555.25
2022-08-23T07:07:37.659Z,99556.06
2022-08-23T07:10:12.116Z,99557.84
2022-08-23T07:12:43.320Z,99555.13
2022-08-23T07:15:12.928Z,99562.16
2022-08-23T07:17:43.528Z,99566.63
2022-08-23T07:20:11.296Z,99571.06
2022-08-23T07:22:41.338Z,99573.59
2022-08-23T07:25:10.112Z,99576.31
2022-08-23T07:27:39.593Z,99574.50
2022-08-23T07:30:09.425Z,99577.94
2022-08-23T07:32:40.484Z,99586.75
2022-08-23T07:35:25.121Z,99582.31
2022-08-23T07:37:57.695Z,99585.81
2022-08-23T07:40:30.177Z,99583.13
2022-08-23T07:43:03.193Z,99583.09
2022-08-23T07:45:31.470Z,99587.53
2022-08-23T07:48:03.149Z,99585.66
2022-08-23T07:50:36.765Z,99592.78
2022-08-23T07:53:17.196Z,99592.63
2022-08-23T07:56:16.096Z,99600.63
2022-08-23T07:59:15.719Z,99600.47
2022-08-23T08:02:15.516Z,99602.16
2022-08-23T08:04:43.112Z,99603.13
2022-08-23T08:07:19.341Z,99602.19
2022-08-23T08:09:54.605Z,99605.66
2022-08-23T08:12:23.234Z,99608.31
2022-08-23T08:14:53.477Z,99608.19
2022-08-23T08:17:27.564Z,99616.22
2022-08-23T08:20:23.049Z,99613.44
2022-08-23T08:23:31.646Z,99617.47
2022-08-23T08:26:29.911Z,99614.06
2022-08-23T08:28:58.053Z,99617.53
2022-08-23T08:31:27.411Z,99613.88
2022-08-23T08:33:55.657Z,99611.97
2022-08-23T08:36:41.161Z,99622.56
2022-08-23T08:39:22.420Z,99617.91
2022-08-23T08:42:27.789Z,99615.91
2022-08-23T08:45:10.321Z,99619.50
2022-08-23T08:47:52.406Z,99627.13
2022-08-23T08:50:37.648Z,99624.47
2022-08-23T08:53:23.953Z,99623.53
2022-08-23T08:56:56.990Z,99628.78
2022-08-23T08:59:48.098Z,99628.63
2022-08-23T09:02:32.464Z,99630.16
2022-08-23T09:05:24.601Z,99624.78
2022-08-23T09:08:35.711Z,99625.78
2022-08-23T09:12:08.625Z,99622.88
2022-08-23T09:15:23.941Z,99620.97
2022-08-23T09:18:04.768Z,99617.31
2022-08-23T09:20:35.572Z,99622.72
2022-08-23T09:23:17.157Z,99625.16
2022-08-23T09:26:24.129Z,99622.84
2022-08-23T09:29:18.748Z,99628.47
2022-08-23T09:32:02.604Z,99628.78
2022-08-23T09:34:35.021Z,99628.03
2022-08-23T09:37:24.533Z,99632.31
2022-08-23T09:40:28.089Z,99632.03
2022-08-23T09:43:23.656Z,99641.16
2022-08-23T09:45:51.105Z,99643.66
2022-08-23T09:48:44.105Z,99636.13
2022-08-23T09:51:32.436Z,99633.28
2022-08-23T09:54:20.410Z,99644.00
2022-08-23T09:56:58.736Z,99637.25
2022-08-23T09:59:26.844Z,99641.56
2022-08-23T10:02:02.049Z,99630.84
2022-08-23T10:05:20.263Z,99638.47
2022-08-23T10:08:01.680Z,99636.06
2022-08-23T10:10:52.656Z,99637.53
2022-08-23T10:13:27.850Z,99630.50
2022-08-23T10:16:41.765Z,99625.47
2022-08-23T10:19:48.812Z,99632.69
2022-08-23T10:22:26.403Z,99618.59
2022-08-23T10:25:38.308Z,99623.41
2022-08-23T10:29:03.998Z,99625.97
2022-08-23T10:31:53.244Z,99624.78
2022-08-23T10:34:50.440Z,99627.50
2022-08-23T10:38:19.548Z,99621.56
2022-08-23T10:41:18.530Z,99617.84
2022-08-23T10:44:00.585Z,99622.03
2022-08-23T10:46:31.477Z,99625.34
2022-08-23T10:49:01.609Z,99621.25
2022-08-23T10:51:49.035Z,99620.84
2022-08-23T10:54:48.787Z,99612.56
2022-08-23T10:57:37.481Z,99610.38
2022-08-23T11:00:21.820Z,99600.50
2022-08-23T11:03:05.748Z,99608.31
2022-08-23T11:05:38.724Z,99602.44
2022-08-23T11:08:36.642Z,99601.28
2022-08-23T11:11:44.958Z,99601.28
2022-08-23T11:14:45.811Z,99602.22
2022-08-23T11:17:42.412Z,99600.31
2022-08-23T11:20:13.306Z,99605.53
2022-08-23T11:23:00.001Z,99591.13
2022-08-23T11:25:27.114Z,99585.56
2022-08-23T11:28:25.814Z,99591.19
2022-08-23T11:31:24.130Z,99587.66
2022-08-23T11:34:30.046Z,99592.41
2022-08-23T11:37:20.388Z,99590.56
2022-08-23T11:39:58.346Z,99591.75
2022-08-23T11:42:40.187Z,99590.47
2022-08-23T11:45:46.763Z,99587.75
2022-08-23T11:48:40.588Z,99589.75
2022-08-23T11:52:10.725Z,99596.81
2022-08-23T11:55:09.483Z,99592.44
2022-08-23T11:58:13.900Z,99597.31
2022-08-23T12:01:10.545Z,99592.34
2022-08-23T12:03:57.004Z,99594.84
2022-08-23T12:06:50.530Z,99595.97
2022-08-23T12:09:24.064Z,99591.47
2022-08-23T12:11:57.450Z,99589.84
2022-08-23T12:14:42.894Z,99591.78
2022-08-23T12:17:12.839Z,99587.72
2022-08-23T12:19:53.785Z,99595.69
2022-08-23T12:22:52.759Z,99596.19
2022-08-23T12:25:22.976Z,99590.41
2022-08-23T12:28:07.530Z,99592.91
2022-08-23T12:31:18.995Z,99593.38
2022-08-23T12:34:15.889Z,99598.69
2022-08-23T12:37:28.985Z,99598.84
2022-08-23T12:40:02.362Z,99604.34
2022-08-23T12:42:38.619Z,99590.72
2022-08-23T12:45:13.037Z,99595.91
2022-08-23T12:47:43.829Z,99596.56
2022-08-23T12:50:15.117Z,99594.69
2022-08-23T12:52:42.706Z,99589.28
2022-08-23T12:55:20.082Z,99585.31
2022-08-23T12:57:56.231Z,99581.09
2022-08-23T13:00:43.351Z,99584.13
2022-08-23T13:03:44.528Z,99579.88
2022-08-23T13:06:20.761Z,99580.78
2022-08-23T13:09:33.480Z,99578.63
2022-08-23T13:12:02.420Z,99571.91
2022-08-23T13:14:33.373Z,99566.16
2022-08-23T13:17:22.807Z,99567.66
2022-08-23T13:20:01.225Z,99565.78
2022-08-23T13:22:37.496Z,99564.31
2022-08-23T13:25:28.045Z,99565.97
2022-08-23T13:28:02.372Z,99565.47
2022-08-23T13:30:37.801Z,99557.16
2022-08-23T13:33:08.144Z,99559.72
2022-08-23T13:35:49.809Z,99562.38
2022-08-23T13:38:32.422Z,99566.22
2022-08-23T13:41:31.104Z,99555.00
2022-08-23T13:44:08.247Z,99559.22
2022-08-23T13:46:47.001Z,99552.22
2022-08-23T13:49:20.598Z,99555.91
2022-08-23T13:52:17.218Z,99544.97
2022-08-23T13:54:50.829Z,99554.78
2022-08-23T13:57:22.066Z,99535.41
2022-08-23T13:59:58.939Z,99539.53
2022-08-23T14:02:26.706Z,99545.50
2022-08-23T14:04:54.219Z,99546.13
2022-08-23T14:07:21.768Z,99543.84
2022-08-23T14:09:53.172Z,99538.44
2022-08-23T14:12:28.035Z,99535.94
2022-08-23T14:14:57.759Z,99532.22
2022-08-23T14:17:26.163Z,99529.69
2022-08-23T14:20:31.859Z,99525.75
2022-08-23T14:22:41.184Z,99527.34
2022-08-23T14:25:10.748Z,99525.91
2022-08-23T14:27:42.413Z,99520.09
2022-08-23T14:30:23.801Z,99518.44
2022-08-23T14:32:58.590Z,99516.53
2022-08-23T14:35:26.977Z,99525.47
2022-08-23T14:38:04.067Z,99523.44
2022-08-23T14:40:33.092Z,99517.94
2022-08-23T14:43:00.884Z,99518.75
2022-08-23T14:45:28.628Z,99519.91
2022-08-23T14:47:55.984Z,99523.66
2022-08-23T14:50:23.256Z,99523.47
2022-08-23T14:52:50.571Z,99520.31
2022-08-23T14:55:20.221Z,99509.78
2022-08-23T14:57:51.816Z,99522.72
2022-08-23T15:00:19.158Z,99520.22
2022-08-23T15:02:48.776Z,99512.06
2022-08-23T15:05:17.416Z,99508.88
2022-08-23T15:07:45.421Z,99517.34
2022-08-23T15:13:20.606Z,99501.84
2022-08-23T15:15:50.481Z,99509.63
2022-08-23T15:18:19.492Z,99500.81
2022-08-23T15:20:47.228Z,99497.88
2022-08-23T15:23:14.913Z,99498.34
2022-08-23T15:25:45.050Z,99501.38
2022-08-23T15:28:16.929Z,99503.13
2022-08-23T15:30:46.784Z,99509.19
2022-08-23T15:33:14.548Z,99508.78
2022-08-23T15:35:52.110Z,99504.63
2022-08-23T15:38:23.564Z,99495.06
2022-08-23T15:40:54.550Z,99508.34
2022-08-23T15:43:23.592Z,99503.47
2022-08-23T15:46:07.972Z,99500.00
2022-08-23T15:49:13.701Z,99504.06
2022-08-23T15:51:41.900Z,99505.59
2022-08-23T15:54:10.699Z,99498.84
2022-08-23T15:56:50.029Z,99491.97
2022-08-23T15:59:19.450Z,99499.78
2022-08-23T16:01:47.273Z,99495.50
2022-08-23T16:04:14.658Z,99496.00
2022-08-23T16:06:42.553Z,99498.47
2022-08-23T16:09:20.638Z,99498.78
2022-08-23T16:11:48.721Z,99492.75
2022-08-23T16:14:16.930Z,99487.97
2022-08-23T16:16:46.775Z,99491.00
2022-08-23T16:19:14.828Z,99493.34
2022-08-23T16:21:45.252Z,99500.78
2022-08-23T16:24:12.564Z,99492.91
2022-08-23T16:26:43.965Z,99497.41
2022-08-23T16:29:17.425Z,99491.34
2022-08-23T16:31:46.165Z,99490.56
2022-08-23T16:34:18.480Z,99494.13
2022-08-23T16:36:59.297Z,99492.47
2022-08-23T16:39:28.306Z,99488.28
2022-08-23T16:41:57.530Z,99487.16
2022-08-23T16:44:24.871Z,99499.41
2022-08-23T16:46:52.446Z,99493.34
2022-08-23T16:49:22.113Z,99498.06
2022-08-23T16:51:49.998Z,99495.91
2022-08-23T16:54:19.249Z,99500.22
2022-08-23T16:56:46.855Z,99498.03
2022-08-23T16:59:14.440Z,99502.13
2022-08-23T17:02:05.854Z,99501.34
2022-08-23T17:04:38.631Z,99501.50
2022-08-23T17:07:07.428Z,99501.50
2022-08-23T17:09:34.814Z,99502.78
2022-08-23T17:12:03.123Z,99507.78
2022-08-23T17:14:30.499Z,99511.38
2022-08-23T17:16:57.902Z,99516.88
2022-08-23T17:19:25.313Z,99510.19
2022-08-23T17:21:52.604Z,99506.94
2022-08-23T17:24:19.896Z,99509.84
2022-08-23T17:26:47.270Z,99509.63
2022-08-23T17:29:14.503Z,99509.38
2022-08-23T17:31:43.317Z,99518.81
2022-08-23T17:34:10.689Z,99509.50
2022-08-23T17:36:47.750Z,99513.97
2022-08-23T17:39:22.163Z,99516.34
2022-08-23T17:41:49.518Z,99521.84
2022-08-23T17:44:17.682Z,99526.06
2022-08-23T17:46:46.445Z,99528.50
2022-08-23T17:49:16.405Z,99529.59
2022-08-23T17:51:44.370Z,99533.13
2022-08-23T17:54:16.039Z,99544.41
2022-08-23T17:56:50.225Z,99545.09
2022-08-23T17:59:20.290Z,99540.06
2022-08-23T18:01:47.764Z,99546.69
2022-08-23T18:04:15.136Z,99549.75
2022-08-23T18:06:42.564Z,99549.19
2022-08-23T18:09:10.216Z,99550.31
2022-08-23T18:11:37.751Z,99555.34
2022-08-23T18:14:05.997Z,99558.53
2022-08-23T18:16:35.804Z,99564.47
2022-08-23T18:19:06.372Z,99564.09
2022-08-23T18:21:40.974Z,99582.47
2022-08-23T18:24:09.858Z,99576.44
2022-08-23T18:26:56.937Z,99579.38
2022-08-23T18:29:24.963Z,99586.97
2022-08-23T18:31:52.314Z,99589.00
2022-08-23T18:34:20.224Z,99592.00
2022-08-23T18:36:47.927Z,99597.56
2022-08-23T18:39:17.531Z,99596.88
2022-08-23T18:42:05.195Z,99607.94
2022-08-23T18:44:32.765Z,99609.84
2022-08-23T18:47:02.823Z,99619.19
2022-08-23T18:49:33.738Z,99625.03
2022-08-23T18:52:02.651Z,99628.75
2022-08-23T18:54:33.643Z,99636.16
2022-08-23T18:57:01.911Z,99638.91
2022-08-23T18:59:29.755Z,99645.25
2022-08-23T19:01:57.321Z,99650.78
2022-08-23T19:04:24.824Z,99650.78
2022-08-23T19:06:54.194Z,99662.47
2022-08-23T19:09:22.014Z,99667.19
2022-08-23T19:11:50.076Z,99674.69
2022-08-23T19:14:17.303Z,99682.84
2022-08-23T19:16:48.387Z,99675.91
2022-08-23T19:19:18.633Z,99686.84
2022-08-23T19:21:46.060Z,99684.53
2022-08-23T19:24:13.720Z,99688.22
2022-08-23T19:26:44.395Z,99686.41
2022-08-23T19:29:11.654Z,99691.88
2022-08-23T19:31:43.288Z,99691.94
2022-08-23T19:34:11.540Z,99709.84
2022-08-23T19:36:48.276Z,99708.22
2022-08-23T19:39:19.479Z,99705.75
2022-08-23T19:41:48.591Z,99709.47
2022-08-23T19:44:17.647Z,99709.47
2022-08-23T19:46:45.631Z,99713.19
2022-08-23T19:49:15.676Z,99718.56
2022-08-23T19:51:44.126Z,99723.94
2022-08-23T19:54:12.771Z,99726.69
2022-08-23T19:56:57.486Z,99717.78
2022-08-23T19:59:39.101Z,99730.41
2022-08-23T20:02:09.588Z,99733.31
2022-08-23T20:04:37.054Z,99743.28
2022-08-23T20:07:05.667Z,99739.91
2022-08-23T20:09:33.861Z,99745.31
2022-08-23T20:12:02.238Z,99750.63
2022-08-23T20:14:33.062Z,99755.19
2022-08-23T20:17:04.291Z,99754.47
2022-08-23T20:19:31.574Z,99759.97
2022-08-23T20:22:17.382Z,99753.81
2022-08-23T20:24:52.857Z,99758.31
2022-08-23T20:27:25.435Z,99760.19
2022-08-23T20:30:00.013Z,99762.91
2022-08-23T20:32:28.957Z,99768.38
2022-08-23T20:34:56.196Z,99774.59
2022-08-23T20:37:23.409Z,99772.91
2022-08-23T20:39:50.895Z,99776.50
2022-08-23T20:42:18.679Z,99781.09
2022-08-23T20:44:46.116Z,99773.97
2022-08-23T20:47:13.453Z,99784.75
2022-08-23T20:49:40.936Z,99791.00
2022-08-23T20:52:08.464Z,99787.47
2022-08-23T20:54:35.996Z,99794.59
2022-08-23T20:57:03.572Z,99794.66
2022-08-23T20:59:30.947Z,99796.41
2022-08-23T21:01:59.178Z,99798.22
2022-08-23T21:04:30.169Z,99800.97
2022-08-23T21:06:58.573Z,99805.50
2022-08-23T21:09:29.451Z,99805.53
2022-08-23T21:11:57.626Z,99807.38
2022-08-23T21:14:25.373Z,99805.53
2022-08-23T21:16:52.654Z,99805.53
2022-08-23T21:19:19.937Z,99805.59
2022-08-23T21:21:47.376Z,99808.28
2022-08-23T21:24:15.296Z,99806.50
2022-08-23T21:26:42.702Z,99804.78
2022-08-23T21:29:11.098Z,99811.06
2022-08-23T21:31:39.553Z,99812.00
2022-08-23T21:34:08.187Z,99812.03
2022-08-23T21:36:36.990Z,99813.84
2022-08-23T21:39:05.673Z,99819.22
2022-08-23T21:41:45.883Z,99818.28
2022-08-23T21:44:20.914Z,99812.16
2022-08-23T21:46:48.571Z,99813.97
2022-08-23T21:49:18.039Z,99817.53
2022-08-23T21:51:46.558Z,99815.72
2022-08-23T21:54:16.014Z,99818.38
2022-08-23T21:56:44.065Z,99825.50
2022-08-23T21:59:17.128Z,99829.97
2022-08-23T22:01:46.382Z,99829.09
2022-08-23T22:04:15.540Z,99830.88
2022-08-23T22:06:46.588Z,99836.19
2022-08-23T22:09:20.805Z,99838.78
2022-08-23T22:11:55.165Z,99837.84
2022-08-23T22:14:30.452Z,99843.16
2022-08-23T22:17:00.178Z,99841.44
2022-08-23T22:19:28.209Z,99843.25
2022-08-23T22:21:55.524Z,99847.72
2022-08-23T22:24:25.829Z,99846.81
2022-08-23T22:26:54.956Z,99853.03
2022-08-23T22:29:23.235Z,99849.59
2022-08-23T22:31:50.778Z,99848.72
2022-08-23T22:34:18.201Z,99842.53
2022-08-23T22:36:46.196Z,99853.25
2022-08-23T22:39:18.977Z,99858.56
2022-08-23T22:41:46.165Z,99854.13
2022-08-23T22:44:13.807Z,99857.72
2022-08-23T22:46:41.193Z,99856.81
2022-08-23T22:49:09.340Z,99863.06
2022-08-23T22:51:37.297Z,99861.28
2022-08-23T22:54:09.792Z,99862.25
2022-08-23T22:56:45.124Z,99857.84
2022-08-23T22:59:13.944Z,99856.94
2022-08-23T23:01:52.977Z,99864.97
2022-08-23T23:04:26.268Z,99856.06
2022-08-23T23:06:55.217Z,99856.97
2022-08-23T23:09:22.776Z,99860.56
2022-08-23T23:11:53.521Z,99868.59
2022-08-23T23:14:22.433Z,99868.63
2022-08-23T23:16:50.781Z,99871.31
2022-08-23T23:19:38.649Z,99863.31
2022-08-23T23:22:09.133Z,99867.75
2022-08-23T23:24:39.995Z,99865.06
2022-08-23T23:27:08.220Z,99872.19
2022-08-23T23:29:36.526Z,99867.75
2022-08-23T23:32:05.558Z,99863.34
2022-08-23T23:34:32.949Z,99866.00
2022-08-23T23:37:00.224Z,99862.44
2022-08-23T23:39:28.392Z,99861.53
2022-08-23T23:41:56.255Z,99868.66
2022-08-23T23:44:29.156Z,99858.88
2022-08-23T23:47:01.420Z,99867.78
2022-08-23T23:49:32.080Z,99866.03
2022-08-23T23:52:04.763Z,99871.34
2022-08-23T23:54:35.380Z,99870.47
2022-08-23T23:57:05.570Z,99873.13
2022-08-23T23:59:33.226Z,99866.03
